createdAt,value
2022-12-22T00:01:38.793Z,96.90
2022-12-22T00:04:28.999Z,83.75
2022-12-22T00:07:14.381Z,94.43
2022-12-22T00:09:59.581Z,102.43
2022-12-22T00:12:46.122Z,103.03
2022-12-22T00:15:35.545Z,100.15
2022-12-22T00:18:21.745Z,112.85
2022-12-22T00:21:07.091Z,99.57
2022-12-22T00:23:52.418Z,99.88
2022-12-22T00:26:38.556Z,104.47
2022-12-22T00:29:23.877Z,124.22
2022-12-22T00:32:09.591Z,107.57
2022-12-22T00:35:04.051Z,115.20
2022-12-22T00:37:53.799Z,112.65
2022-12-22T00:40:42.128Z,128.32
2022-12-22T00:43:27.231Z,119.70
2022-12-22T00:46:12.486Z,134.32
2022-12-22T00:49:00.553Z,143.05
2022-12-22T00:51:46.733Z,144.10
2022-12-22T00:54:34.332Z,143.30
2022-12-22T00:57:20.745Z,153.45
2022-12-22T01:00:07.850Z,152.77
2022-12-22T01:02:53.684Z,160.73
2022-12-22T01:05:39.330Z,164.23
2022-12-22T01:08:24.426Z,144.43
2022-12-22T01:11:09.859Z,140.50
2022-12-22T01:13:54.853Z,137.13
2022-12-22T01:16:40.103Z,142.02
2022-12-22T01:19:25.244Z,118.00
2022-12-22T01:22:10.012Z,86.53
2022-12-22T01:24:55.550Z,85.03
2022-12-22T01:27:41.048Z,73.95
2022-12-22T01:30:27.444Z,72.38
2022-12-22T01:33:12.594Z,64.07
2022-12-22T01:35:57.885Z,67.60
2022-12-22T01:38:43.121Z,91.43
2022-12-22T01:41:34.498Z,128.32
2022-12-22T01:44:19.652Z,133.55
2022-12-22T01:47:06.049Z,111.53
2022-12-22T01:49:59.528Z,122.72
2022-12-22T01:52:50.167Z,133.43
2022-12-22T01:55:38.532Z,137.68
2022-12-22T01:58:35.602Z,147.38
2022-12-22T02:01:20.742Z,138.73
2022-12-22T02:04:05.936Z,145.18
2022-12-22T02:07:00.032Z,134.02
2022-12-22T02:09:59.700Z,137.98
2022-12-22T02:12:57.679Z,135.85
2022-12-22T02:16:06.942Z,128.35
2022-12-22T02:19:05.705Z,124.38
2022-12-22T02:22:16.508Z,131.52
2022-12-22T02:25:08.491Z,116.68
2022-12-22T02:27:58.283Z,112.22
2022-12-22T02:30:45.916Z,123.00
2022-12-22T02:33:31.441Z,116.13
2022-12-22T02:36:19.646Z,118.15
2022-12-22T02:39:16.955Z,119.60
2022-12-22T02:42:15.227Z,113.07
2022-12-22T02:45:12.632Z,108.25
2022-12-22T02:48:06.673Z,95.82
2022-12-22T02:51:02.409Z,101.55
2022-12-22T02:53:49.115Z,99.47
2022-12-22T02:56:34.687Z,99.57
2022-12-22T02:59:20.008Z,105.70
2022-12-22T03:02:05.840Z,101.63
2022-12-22T03:04:50.934Z,119.38
2022-12-22T03:07:36.276Z,112.53
2022-12-22T03:10:21.647Z,105.75
2022-12-22T03:13:06.805Z,109.15
2022-12-22T03:15:52.138Z,108.18
2022-12-22T03:18:37.287Z,106.65
2022-12-22T03:21:23.005Z,104.65
2022-12-22T03:24:08.271Z,101.32
2022-12-22T03:26:34.866Z,104.85
2022-12-22T03:29:01.607Z,112.38
2022-12-22T03:31:28.267Z,107.90
2022-12-22T03:33:55.174Z,109.78
2022-12-22T03:36:21.910Z,108.85
2022-12-22T03:38:48.533Z,113.40
2022-12-22T03:41:33.697Z,104.93
2022-12-22T03:44:19.239Z,105.45
2022-12-22T03:46:46.038Z,114.28
2022-12-22T03:49:12.825Z,121.15
2022-12-22T03:51:45.457Z,112.45
2022-12-22T03:54:15.118Z,113.40
2022-12-22T03:56:42.487Z,115.25
2022-12-22T03:59:10.077Z,116.63
2022-12-22T04:01:48.809Z,115.65
2022-12-22T04:04:17.858Z,117.57
2022-12-22T04:06:45.297Z,114.13
2022-12-22T04:09:12.161Z,116.43
2022-12-22T04:11:57.317Z,109.60
2022-12-22T04:14:28.107Z,114.00
2022-12-22T04:16:59.937Z,114.20
2022-12-22T04:19:26.705Z,114.78
2022-12-22T04:21:54.787Z,118.05
2022-12-22T04:24:22.371Z,110.63
2022-12-22T04:26:49.750Z,117.65
2022-12-22T04:29:16.610Z,116.47
2022-12-22T04:31:43.853Z,110.75
2022-12-22T04:34:10.608Z,95.60
2022-12-22T04:36:37.329Z,84.78
2022-12-22T04:39:04.310Z,67.13
2022-12-22T04:41:31.296Z,93.10
2022-12-22T04:43:58.038Z,104.10
2022-12-22T04:46:24.836Z,105.15
2022-12-22T04:48:56.196Z,102.15
2022-12-22T04:51:26.509Z,102.43
2022-12-22T04:53:53.265Z,97.53
2022-12-22T04:56:19.895Z,94.63
2022-12-22T04:58:46.548Z,85.75
2022-12-22T05:01:16.532Z,94.13
2022-12-22T05:03:43.323Z,85.03
2022-12-22T05:06:12.086Z,82.78
2022-12-22T05:08:38.757Z,85.80
2022-12-22T05:11:05.748Z,79.95
2022-12-22T05:13:32.901Z,79.53
2022-12-22T05:16:12.998Z,67.65
2022-12-22T05:18:41.400Z,81.85
2022-12-22T05:21:15.957Z,79.32
2022-12-22T05:23:43.252Z,70.90
2022-12-22T05:26:10.414Z,79.03
2022-12-22T05:28:37.749Z,70.30
2022-12-22T05:31:06.767Z,79.18
2022-12-22T05:33:34.213Z,74.95
2022-12-22T05:36:01.164Z,78.45
2022-12-22T05:38:28.155Z,89.18
2022-12-22T05:40:59.914Z,82.90
2022-12-22T05:43:30.139Z,85.57
2022-12-22T05:45:58.665Z,95.35
2022-12-22T05:48:30.853Z,95.50
2022-12-22T05:51:00.662Z,82.55
2022-12-22T05:53:27.478Z,91.30
2022-12-22T05:55:54.207Z,84.75
2022-12-22T05:58:20.990Z,92.47
2022-12-22T06:00:47.540Z,95.22
2022-12-22T06:03:14.374Z,87.35
2022-12-22T06:05:41.657Z,82.43
2022-12-22T06:08:08.303Z,82.30
2022-12-22T06:10:35.309Z,88.82
2022-12-22T06:13:02.072Z,110.75
2022-12-22T06:15:28.697Z,95.20
2022-12-22T06:17:55.388Z,100.18
2022-12-22T06:20:22.153Z,91.10
2022-12-22T06:22:48.853Z,95.20
2022-12-22T06:25:18.370Z,88.63
2022-12-22T06:27:45.917Z,85.47
2022-12-22T06:30:12.807Z,90.03
2022-12-22T06:32:39.704Z,87.47
2022-12-22T06:35:07.812Z,93.80
2022-12-22T06:37:34.795Z,92.45
2022-12-22T06:40:02.442Z,93.93
2022-12-22T06:42:47.502Z,97.57
2022-12-22T06:45:14.179Z,84.40
2022-12-22T06:47:40.758Z,86.45
2022-12-22T06:50:08.050Z,98.18
2022-12-22T06:52:34.800Z,89.85
2022-12-22T06:55:02.315Z,84.68
2022-12-22T06:57:29.430Z,96.45
2022-12-22T06:59:57.965Z,82.05
2022-12-22T07:02:25.205Z,82.47
2022-12-22T07:04:52.167Z,81.25
2022-12-22T07:07:18.921Z,83.72
2022-12-22T07:09:45.610Z,103.40
2022-12-22T07:12:13.216Z,131.77
2022-12-22T07:14:39.893Z,126.22
2022-12-22T07:17:06.604Z,122.25
2022-12-22T07:19:34.386Z,124.10
2022-12-22T07:22:01.161Z,119.15
2022-12-22T07:24:29.403Z,132.82
2022-12-22T07:26:56.330Z,135.98
2022-12-22T07:29:23.200Z,121.13
2022-12-22T07:31:50.004Z,124.22
2022-12-22T07:34:16.709Z,116.57
2022-12-22T07:36:43.432Z,112.57
2022-12-22T07:39:11.877Z,119.82
2022-12-22T07:41:57.037Z,101.53
2022-12-22T07:44:24.412Z,120.35
2022-12-22T07:46:51.171Z,103.22
2022-12-22T07:49:36.587Z,112.38
2022-12-22T07:52:03.363Z,103.15
2022-12-22T07:54:30.137Z,113.30
2022-12-22T07:56:57.005Z,117.05
2022-12-22T07:59:23.938Z,111.78
2022-12-22T08:01:50.832Z,112.43
2022-12-22T08:04:17.797Z,113.25
2022-12-22T08:06:44.788Z,112.25
2022-12-22T08:09:17.352Z,108.93
2022-12-22T08:11:44.244Z,109.65
2022-12-22T08:14:10.822Z,107.93
2022-12-22T08:16:37.603Z,102.30
2022-12-22T08:19:04.400Z,98.57
2022-12-22T08:21:31.050Z,103.18
2022-12-22T08:23:57.842Z,98.50
2022-12-22T08:26:35.998Z,108.65
2022-12-22T08:29:08.336Z,97.65
2022-12-22T08:31:35.388Z,101.80
2022-12-22T08:34:04.706Z,98.00
2022-12-22T08:36:36.792Z,91.45
2022-12-22T08:39:04.667Z,93.20
2022-12-22T08:41:50.182Z,101.35
2022-12-22T08:44:24.024Z,106.07
2022-12-22T08:46:51.499Z,108.80
2022-12-22T08:49:19.108Z,110.18
2022-12-22T08:51:46.319Z,117.18
2022-12-22T08:54:13.380Z,116.47
2022-12-22T08:56:40.582Z,115.38
2022-12-22T08:59:07.933Z,114.10
2022-12-22T09:01:37.416Z,120.00
2022-12-22T09:04:04.967Z,110.53
2022-12-22T09:06:38.613Z,115.82
2022-12-22T09:09:09.816Z,109.45
2022-12-22T09:11:36.613Z,112.85
2022-12-22T09:14:04.132Z,109.28
2022-12-22T09:16:33.598Z,117.18
2022-12-22T09:19:01.387Z,108.15
2022-12-22T09:21:29.131Z,109.63
2022-12-22T09:23:56.900Z,116.80
2022-12-22T09:26:25.787Z,112.18
2022-12-22T09:28:53.456Z,122.20
2022-12-22T09:31:23.116Z,112.53
2022-12-22T09:33:49.888Z,109.03
2022-12-22T09:36:19.426Z,108.25
2022-12-22T09:38:46.458Z,92.97
2022-12-22T09:41:20.195Z,86.13
2022-12-22T09:43:47.765Z,97.47
2022-12-22T09:46:23.924Z,85.53
2022-12-22T09:48:51.207Z,93.28
2022-12-22T09:51:24.398Z,99.90
2022-12-22T09:53:57.473Z,110.07
2022-12-22T09:56:26.383Z,100.10
2022-12-22T09:58:53.128Z,99.43
2022-12-22T10:01:37.531Z,100.75
2022-12-22T10:04:30.778Z,103.63
2022-12-22T10:07:22.368Z,108.03
2022-12-22T10:09:51.202Z,101.68
2022-12-22T10:12:23.422Z,107.50
2022-12-22T10:14:52.708Z,114.60
2022-12-22T10:17:28.292Z,105.32
2022-12-22T10:20:29.882Z,105.65
2022-12-22T10:23:07.014Z,111.30
2022-12-22T10:29:06.268Z,114.85
2022-12-22T10:31:35.187Z,115.00
2022-12-22T10:34:14.744Z,113.70
2022-12-22T10:36:47.266Z,119.10
2022-12-22T10:39:29.740Z,105.28
2022-12-22T10:42:10.305Z,116.63
2022-12-22T10:44:38.687Z,113.10
2022-12-22T10:47:17.651Z,110.18
2022-12-22T10:49:47.855Z,107.95
2022-12-22T10:52:29.436Z,111.70
2022-12-22T10:55:26.064Z,106.68
2022-12-22T10:58:13.951Z,112.53
2022-12-22T11:00:41.758Z,112.88
2022-12-22T11:03:12.126Z,100.15
2022-12-22T11:05:39.158Z,107.82
2022-12-22T11:08:26.421Z,99.65
2022-12-22T11:11:08.397Z,104.18
2022-12-22T11:13:35.786Z,98.78
2022-12-22T11:16:23.742Z,95.40
2022-12-22T11:19:11.404Z,104.88
2022-12-22T11:21:56.165Z,89.20
2022-12-22T11:24:53.301Z,95.75
2022-12-22T11:27:25.683Z,94.97
2022-12-22T11:30:07.825Z,91.00
2022-12-22T11:33:05.479Z,94.13
2022-12-22T11:35:49.133Z,93.25
2022-12-22T11:38:48.802Z,94.97
2022-12-22T11:41:18.261Z,94.55
2022-12-22T11:44:21.540Z,90.63
2022-12-22T11:46:58.098Z,88.50
2022-12-22T11:49:30.445Z,82.93
2022-12-22T11:51:57.079Z,90.70
2022-12-22T11:54:32.747Z,92.55
2022-12-22T11:57:15.753Z,87.90
2022-12-22T11:59:49.780Z,89.00
2022-12-22T12:02:40.867Z,86.95
2022-12-22T12:05:31.974Z,97.10
2022-12-22T12:08:24.269Z,84.20
2022-12-22T12:11:12.623Z,78.45
2022-12-22T12:13:50.403Z,81.57
2022-12-22T12:16:39.469Z,82.88
2022-12-22T12:19:47.809Z,82.65
2022-12-22T12:22:18.429Z,79.88
2022-12-22T12:25:01.017Z,84.28
2022-12-22T12:27:46.431Z,76.70
2022-12-22T12:33:21.254Z,90.22
2022-12-22T12:35:59.841Z,83.38
2022-12-22T12:41:31.246Z,80.05
2022-12-22T12:43:59.225Z,79.15
2022-12-22T12:46:44.763Z,74.15
2022-12-22T12:49:50.529Z,79.78
2022-12-22T12:52:17.744Z,83.13
2022-12-22T12:54:47.375Z,82.07
2022-12-22T12:57:45.505Z,80.60
2022-12-22T13:00:34.059Z,79.15
2022-12-22T13:03:03.730Z,81.05
2022-12-22T13:05:36.648Z,75.55
2022-12-22T13:08:06.667Z,85.90
2022-12-22T13:10:58.620Z,82.43
2022-12-22T13:13:25.407Z,83.57
2022-12-22T13:16:01.818Z,91.50
2022-12-22T13:18:34.599Z,84.75
2022-12-22T13:21:50.287Z,94.35
2022-12-22T13:24:24.101Z,94.50
2022-12-22T13:26:52.187Z,96.45
2022-12-22T13:29:26.213Z,87.55
2022-12-22T13:31:56.782Z,88.32
2022-12-22T13:35:20.672Z,91.40
2022-12-22T13:37:43.658Z,96.35
2022-12-22T13:40:17.617Z,90.55
2022-12-22T13:42:56.403Z,88.47
2022-12-22T13:45:47.717Z,98.30
2022-12-22T13:48:20.179Z,94.90
2022-12-22T13:50:56.588Z,84.00
2022-12-22T13:56:23.237Z,86.30
2022-12-22T13:58:59.769Z,82.60
2022-12-22T14:01:26.806Z,92.63
2022-12-22T14:04:03.630Z,87.07
2022-12-22T14:06:40.128Z,84.50
2022-12-22T14:09:24.709Z,80.20
2022-12-22T14:12:05.303Z,85.32
2022-12-22T14:14:38.087Z,83.47
2022-12-22T14:17:06.613Z,80.22
2022-12-22T14:19:37.411Z,80.07
2022-12-22T14:22:12.169Z,82.63
2022-12-22T14:24:48.066Z,86.05
2022-12-22T14:27:40.556Z,83.28
2022-12-22T14:30:27.055Z,75.78
2022-12-22T14:32:56.332Z,82.75
2022-12-22T14:35:27.196Z,78.38
2022-12-22T14:38:19.884Z,72.60
2022-12-22T14:40:52.479Z,77.43
2022-12-22T14:43:30.608Z,81.75
2022-12-22T14:46:08.916Z,76.65
2022-12-22T14:48:39.932Z,82.10
2022-12-22T14:51:07.537Z,71.50
2022-12-22T14:53:45.503Z,79.35
2022-12-22T14:56:14.304Z,74.82
2022-12-22T14:58:42.807Z,76.00
2022-12-22T15:01:20.626Z,84.63
2022-12-22T15:04:02.540Z,90.25
2022-12-22T15:06:29.360Z,78.78
2022-12-22T15:09:07.673Z,83.93
2022-12-22T15:11:37.700Z,83.30
2022-12-22T15:14:05.661Z,84.55
2022-12-22T15:16:32.453Z,91.97
2022-12-22T15:18:59.108Z,83.88
2022-12-22T15:21:25.794Z,86.85
2022-12-22T15:23:52.409Z,98.90
2022-12-22T15:26:19.075Z,90.18
2022-12-22T15:28:45.715Z,95.07
2022-12-22T15:31:15.666Z,102.80
2022-12-22T15:33:43.933Z,102.82
2022-12-22T15:36:12.638Z,96.32
2022-12-22T15:38:40.423Z,84.68
2022-12-22T15:41:08.029Z,101.05
2022-12-22T15:43:57.162Z,101.38
2022-12-22T15:46:24.833Z,90.43
2022-12-22T15:48:51.715Z,90.63
2022-12-22T15:51:23.878Z,107.15
2022-12-22T15:53:51.287Z,113.82
2022-12-22T15:56:22.368Z,105.35
2022-12-22T15:58:49.157Z,112.13
2022-12-22T16:01:15.970Z,100.40
2022-12-22T16:03:42.770Z,108.18
2022-12-22T16:06:19.759Z,93.57
2022-12-22T16:08:49.916Z,91.97
2022-12-22T16:11:17.608Z,96.32
2022-12-22T16:13:44.831Z,99.47
2022-12-22T16:16:12.101Z,100.03
2022-12-22T16:18:38.744Z,103.20
2022-12-22T16:21:08.342Z,92.35
2022-12-22T16:23:36.911Z,97.60
2022-12-22T16:26:04.945Z,109.25
2022-12-22T16:28:33.305Z,95.93
2022-12-22T16:31:01.184Z,99.72
2022-12-22T16:33:27.953Z,107.00
2022-12-22T16:35:54.699Z,97.70
2022-12-22T16:38:21.466Z,100.88
2022-12-22T16:40:51.942Z,101.40
2022-12-22T16:46:17.290Z,109.72
2022-12-22T16:48:51.952Z,115.10
2022-12-22T16:51:24.744Z,110.72
2022-12-22T16:53:51.548Z,116.00
2022-12-22T16:56:21.487Z,124.07
2022-12-22T16:58:48.927Z,125.18
2022-12-22T17:01:32.310Z,124.32
2022-12-22T17:04:04.936Z,125.13
2022-12-22T17:06:32.076Z,122.15
2022-12-22T17:08:58.713Z,121.75
2022-12-22T17:11:29.657Z,124.53
2022-12-22T17:14:06.002Z,127.45
2022-12-22T17:16:32.706Z,130.57
2022-12-22T17:18:59.574Z,130.35
2022-12-22T17:21:29.941Z,115.40
2022-12-22T17:24:04.379Z,127.28
2022-12-22T17:26:33.898Z,117.88
2022-12-22T17:29:00.855Z,94.40
2022-12-22T17:31:27.742Z,87.03
2022-12-22T17:33:54.376Z,91.03
2022-12-22T17:36:39.905Z,78.85
2022-12-22T17:39:12.950Z,90.70
2022-12-22T17:41:40.150Z,85.93
2022-12-22T17:44:06.859Z,88.72
2022-12-22T17:46:33.540Z,93.18
2022-12-22T17:49:00.177Z,94.45
2022-12-22T17:51:29.105Z,99.85
2022-12-22T17:53:58.721Z,101.45
2022-12-22T17:56:27.584Z,111.13
2022-12-22T17:58:54.704Z,113.28
2022-12-22T18:01:27.609Z,128.60
2022-12-22T18:03:55.569Z,152.43
2022-12-22T18:06:29.620Z,106.45
2022-12-22T18:08:57.253Z,117.20
2022-12-22T18:11:24.381Z,120.20
2022-12-22T18:13:52.555Z,114.55
2022-12-22T18:16:21.152Z,121.72
2022-12-22T18:18:47.879Z,119.13
2022-12-22T18:21:25.413Z,114.90
2022-12-22T18:23:52.121Z,109.15
2022-12-22T18:26:27.715Z,116.10
2022-12-22T18:28:55.156Z,103.88
2022-12-22T18:31:22.829Z,116.82
2022-12-22T18:33:50.143Z,102.60
2022-12-22T18:36:18.334Z,107.60
2022-12-22T18:38:46.667Z,96.47
2022-12-22T18:41:24.772Z,112.32
2022-12-22T18:43:51.863Z,125.97
2022-12-22T18:46:19.560Z,134.50
2022-12-22T18:48:47.483Z,148.80
2022-12-22T18:51:23.155Z,141.52
2022-12-22T18:53:52.342Z,173.15
2022-12-22T18:56:19.075Z,152.20
2022-12-22T18:58:46.307Z,150.30
2022-12-22T19:01:24.945Z,135.27
2022-12-22T19:03:54.473Z,132.68
2022-12-22T19:06:22.535Z,133.40
2022-12-22T19:08:49.699Z,128.23
2022-12-22T19:11:18.506Z,124.28
2022-12-22T19:13:51.241Z,128.20
2022-12-22T19:16:21.122Z,129.85
2022-12-22T19:18:47.926Z,137.23
2022-12-22T19:21:16.984Z,160.10
2022-12-22T19:23:43.687Z,162.82
2022-12-22T19:26:26.962Z,164.15
2022-12-22T19:28:57.643Z,161.85
2022-12-22T19:31:30.701Z,168.40
2022-12-22T19:34:00.703Z,156.05
2022-12-22T19:36:30.014Z,156.90
2022-12-22T19:39:04.703Z,163.93
2022-12-22T19:41:44.459Z,182.10
2022-12-22T19:44:26.342Z,179.27
2022-12-22T19:46:54.564Z,152.32
2022-12-22T19:49:27.537Z,158.13
2022-12-22T19:51:57.733Z,165.20
2022-12-22T19:54:25.106Z,173.13
2022-12-22T19:56:55.351Z,156.30
2022-12-22T19:59:38.062Z,146.80
2022-12-22T20:02:30.852Z,141.93
2022-12-22T20:04:58.304Z,134.60
2022-12-22T20:07:27.138Z,146.73
2022-12-22T20:09:53.821Z,181.18
2022-12-22T20:12:37.889Z,195.68
2022-12-22T20:15:38.258Z,197.15
2022-12-22T20:18:19.294Z,214.68
2022-12-22T20:20:57.381Z,230.13
2022-12-22T20:23:25.072Z,275.83
2022-12-22T20:25:58.642Z,322.13
2022-12-22T20:28:43.673Z,385.27
2022-12-22T20:31:14.532Z,474.30
2022-12-22T20:33:41.685Z,554.30
2022-12-22T20:36:26.837Z,473.05
2022-12-22T20:38:57.382Z,455.95
2022-12-22T20:41:24.871Z,410.50
2022-12-22T20:43:53.549Z,373.40
2022-12-22T20:46:24.560Z,405.20
2022-12-22T20:48:57.494Z,427.38
2022-12-22T20:51:27.372Z,362.00
2022-12-22T20:53:55.120Z,327.27
2022-12-22T20:56:29.781Z,266.70
2022-12-22T20:58:57.820Z,269.75
2022-12-22T21:01:24.790Z,318.00
2022-12-22T21:03:51.541Z,261.17
2022-12-22T21:06:33.647Z,297.90
2022-12-22T21:09:01.581Z,293.45
2022-12-22T21:11:29.502Z,286.23
2022-12-22T21:13:57.646Z,297.23
2022-12-22T21:16:27.961Z,323.25
2022-12-22T21:18:54.999Z,299.00
2022-12-22T21:21:22.096Z,323.70
2022-12-22T21:23:48.739Z,360.35
2022-12-22T21:26:25.130Z,370.00
2022-12-22T21:28:53.035Z,394.88
2022-12-22T21:31:19.785Z,385.52
2022-12-22T21:33:47.330Z,327.13
2022-12-22T21:36:23.117Z,328.38
2022-12-22T21:38:54.234Z,338.92
2022-12-22T21:41:41.299Z,320.58
2022-12-22T21:44:08.556Z,286.90
2022-12-22T21:46:35.552Z,291.15
2022-12-22T21:49:02.268Z,282.00
2022-12-22T21:51:28.889Z,276.55
2022-12-22T21:53:55.539Z,276.35
2022-12-22T21:56:22.182Z,254.20
2022-12-22T21:58:48.775Z,282.67
2022-12-22T22:01:16.592Z,314.40
2022-12-22T22:03:43.504Z,322.23
2022-12-22T22:06:10.836Z,293.20
2022-12-22T22:08:37.556Z,298.63
2022-12-22T22:11:04.384Z,302.13
2022-12-22T22:13:31.492Z,289.02
2022-12-22T22:15:59.375Z,300.63
2022-12-22T22:18:26.015Z,274.98
2022-12-22T22:20:52.760Z,276.90
2022-12-22T22:23:19.448Z,275.75
2022-12-22T22:25:46.357Z,207.07
2022-12-22T22:28:12.992Z,191.15
2022-12-22T22:30:42.093Z,233.85
2022-12-22T22:33:10.501Z,226.48
2022-12-22T22:35:40.544Z,199.73
2022-12-22T22:38:12.083Z,205.32
2022-12-22T22:40:38.768Z,266.30
2022-12-22T22:43:05.385Z,282.92
2022-12-22T22:45:32.373Z,274.73
2022-12-22T22:47:59.026Z,259.60
2022-12-22T22:50:25.765Z,265.00
2022-12-22T22:52:52.766Z,282.50
2022-12-22T22:55:19.588Z,267.23
2022-12-22T22:57:46.328Z,270.05
2022-12-22T23:00:16.247Z,253.73
2022-12-22T23:02:43.973Z,256.63
2022-12-22T23:05:16.969Z,243.10
2022-12-22T23:07:47.197Z,253.23
2022-12-22T23:10:13.889Z,263.75
2022-12-22T23:12:40.478Z,229.32
2022-12-22T23:15:07.848Z,262.00
2022-12-22T23:17:34.829Z,270.95
2022-12-22T23:20:02.521Z,228.90
2022-12-22T23:22:29.263Z,252.25
2022-12-22T23:24:55.782Z,230.60
2022-12-22T23:27:23.057Z,221.27
2022-12-22T23:29:49.908Z,222.30
2022-12-22T23:32:16.530Z,208.68
2022-12-22T23:34:43.608Z,271.00
2022-12-22T23:37:17.201Z,253.65
2022-12-22T23:39:45.836Z,213.95
2022-12-22T23:42:12.472Z,189.18
2022-12-22T23:44:39.004Z,220.63
2022-12-22T23:47:05.579Z,204.52
2022-12-22T23:49:32.283Z,220.90
2022-12-22T23:51:58.829Z,206.48
2022-12-22T23:54:25.459Z,217.93
2022-12-22T23:56:52.123Z,224.52
2022-12-22T23:59:18.763Z,222.57
